Terminal Aerodrome Forecast
Issued by NWS

Current Version | Previous Version | Text Only | Print | Product List | Glossary On
Versions: 1 2 3 4 5 6 7 8 9 10 11 12 13 14 15 16 17 18 19 20 21
000
FTUS41 KILN 171446 AAA
TAFLUK
TAF AMD
KLUK 171446Z 1715/1812 19005KT P6SM OVC120
     FM171900 20005KT P6SM -RA OVC050
     FM172200 19004KT P6SM OVC045
     FM180700 20004KT 5SM -DZ BR OVC015=

USA.gov is the U.S. government's official web portal to all federal, state and local government web resources and services.